Time;durP1;ratioP1;P1;durP2;ratioP2;P2;SDS_P1;SDS_P2;PMS_P1;PMS_P2;Temp;Humidity;BMP_temperature;BMP_pressure;BME280_temperature;BME280_humidity;BME280_pressure;Samples;Min_cycle;Max_cycle;Signal;HPM_P1;HPM_P2
2023/07/26 00:01:59;;;;;;;1.10;1.10;;;;;;;;;;5007611;28;20435;-78
2023/07/26 00:04:27;;;;;;;1.00;1.00;;;;;;;;;;5003368;28;20057;-78
2023/07/26 00:06:55;;;;;;;1.65;1.20;;;;;;;;;;4997242;28;20054;-78
2023/07/26 00:09:22;;;;;;;0.85;0.85;;;;;;;;;;5007551;28;20041;-78
2023/07/26 00:11:50;;;;;;;1.33;1.20;;;;;;;;;;4999237;28;20132;-77
2023/07/26 00:14:17;;;;;;;1.17;1.13;;;;;;;;;;5007592;28;20072;-77
2023/07/26 00:16:45;;;;;;;2.55;0.98;;;;;;;;;;5004069;28;20108;-77
2023/07/26 00:19:12;;;;;;;0.82;0.82;;;;;;;;;;5002569;28;20054;-78
2023/07/26 00:21:39;;;;;;;1.15;0.70;;;;;;;;;;4998269;28;20462;-77
2023/07/26 00:24:07;;;;;;;0.98;0.98;;;;;;;;;;4998311;28;20042;-77
2023/07/26 00:26:35;;;;;;;3.40;1.05;;;;;;;;;;5008367;28;20116;-77
2023/07/26 00:29:02;;;;;;;1.88;0.88;;;;;;;;;;4996313;28;20063;-77
2023/07/26 00:31:30;;;;;;;0.80;0.80;;;;;;;;;;5007156;28;20124;-76
2023/07/26 00:33:57;;;;;;;0.80;0.80;;;;;;;;;;5000897;28;20224;-78
2023/07/26 00:36:25;;;;;;;1.75;1.17;;;;;;;;;;5006151;28;20058;-77
2023/07/26 00:38:53;;;;;;;1.77;1.10;;;;;;;;;;5005362;28;20104;-76
2023/07/26 00:41:20;;;;;;;1.02;0.90;;;;;;;;;;4997342;28;20160;-76
2023/07/26 00:43:48;;;;;;;1.10;1.00;;;;;;;;;;4994157;28;20505;-76
2023/07/26 00:46:16;;;;;;;0.93;0.93;;;;;;;;;;5003353;28;20046;-76
2023/07/26 00:48:44;;;;;;;3.72;0.80;;;;;;;;;;5006010;28;20174;-77
2023/07/26 00:51:11;;;;;;;0.80;0.80;;;;;;;;;;4997556;28;20050;-77
2023/07/26 00:53:39;;;;;;;0.70;0.70;;;;;;;;;;4987645;28;20101;-77
2023/07/26 00:56:09;;;;;;;0.88;0.88;;;;;;;;;;4995291;28;20116;-79
2023/07/26 00:58:39;;;;;;;0.98;0.98;;;;;;;;;;4999855;28;20502;-76
2023/07/26 01:01:07;;;;;;;1.10;1.10;;;;;;;;;;5003468;28;20422;-77
2023/07/26 01:03:34;;;;;;;2.88;1.00;;;;;;;;;;4997420;28;20100;-77
2023/07/26 01:06:21;;;;;;;0.82;0.82;;;;;;;;;;5004179;28;20046;-76
2023/07/26 01:09:06;;;;;;;0.90;0.90;;;;;;;;;;5001563;28;20049;-76
2023/07/26 01:11:43;;;;;;;1.00;1.00;;;;;;;;;;5006959;28;20058;-78
2023/07/26 01:14:11;;;;;;;1.27;1.23;;;;;;;;;;5000827;28;20503;-76
2023/07/26 01:16:38;;;;;;;1.20;1.20;;;;;;;;;;4998670;28;20054;-76
2023/07/26 01:19:06;;;;;;;1.40;1.30;;;;;;;;;;5005053;28;20049;-77
2023/07/26 01:21:34;;;;;;;3.80;1.38;;;;;;;;;;5004726;28;20056;-78
2023/07/26 01:24:01;;;;;;;2.03;1.92;;;;;;;;;;4998290;28;20050;-78
2023/07/26 01:26:29;;;;;;;2.92;2.40;;;;;;;;;;4997895;28;20047;-77
2023/07/26 01:28:57;;;;;;;2.35;2.15;;;;;;;;;;5017991;28;20053;-76
2023/07/26 01:31:25;;;;;;;3.35;2.38;;;;;;;;;;4995111;28;20050;-76
2023/07/26 01:33:53;;;;;;;3.97;1.98;;;;;;;;;;4986921;28;20070;-77
2023/07/26 01:36:26;;;;;;;2.35;2.25;;;;;;;;;;5002760;28;20065;-76
2023/07/26 01:38:54;;;;;;;2.22;2.13;;;;;;;;;;4998036;28;20061;-76
2023/07/26 01:41:22;;;;;;;3.42;2.50;;;;;;;;;;5003564;28;20096;-76
2023/07/26 01:43:49;;;;;;;5.13;3.03;;;;;;;;;;5004652;28;20054;-76
2023/07/26 01:46:17;;;;;;;2.50;2.40;;;;;;;;;;4997941;28;20552;-77
2023/07/26 01:48:44;;;;;;;2.40;2.20;;;;;;;;;;5004508;28;20104;-76
2023/07/26 01:51:13;;;;;;;2.35;2.10;;;;;;;;;;4998493;28;20050;-76
2023/07/26 01:53:40;;;;;;;2.10;2.00;;;;;;;;;;4997664;28;20125;-76
2023/07/26 01:56:08;;;;;;;3.70;1.77;;;;;;;;;;4996847;28;20042;-77
2023/07/26 01:58:36;;;;;;;2.53;2.03;;;;;;;;;;4995224;28;20045;-76
2023/07/26 02:01:04;;;;;;;1.95;1.85;;;;;;;;;;5003079;28;20057;-76
2023/07/26 02:03:31;;;;;;;1.88;1.70;;;;;;;;;;5001417;28;20512;-76
2023/07/26 02:05:58;;;;;;;1.83;1.83;;;;;;;;;;5001259;28;20049;-76
2023/07/26 02:08:27;;;;;;;1.80;1.70;;;;;;;;;;4984707;28;20497;-76
2023/07/26 02:10:54;;;;;;;2.10;1.90;;;;;;;;;;4985557;28;20386;-77
2023/07/26 02:13:22;;;;;;;1.65;1.55;;;;;;;;;;4985561;28;20657;-76
2023/07/26 02:15:49;;;;;;;2.15;1.98;;;;;;;;;;4997365;28;20045;-76
2023/07/26 02:18:17;;;;;;;2.15;1.85;;;;;;;;;;4988256;28;20187;-78
2023/07/26 02:20:44;;;;;;;1.80;1.70;;;;;;;;;;4998288;28;20570;-76
2023/07/26 02:23:12;;;;;;;1.98;1.88;;;;;;;;;;5001033;28;20053;-76
2023/07/26 02:25:39;;;;;;;2.10;1.90;;;;;;;;;;4998085;28;20096;-76
2023/07/26 02:28:07;;;;;;;2.47;1.95;;;;;;;;;;4999441;28;20038;-78
2023/07/26 02:30:34;;;;;;;2.00;1.90;;;;;;;;;;4994751;28;20472;-77
2023/07/26 02:33:02;;;;;;;2.25;2.08;;;;;;;;;;5000065;28;20050;-76
2023/07/26 02:35:29;;;;;;;1.90;1.80;;;;;;;;;;5002130;28;20105;-78
2023/07/26 02:37:57;;;;;;;2.30;2.20;;;;;;;;;;4999233;28;20060;-77
2023/07/26 02:40:24;;;;;;;1.88;1.77;;;;;;;;;;4997123;28;20112;-79
2023/07/26 02:42:51;;;;;;;2.15;1.95;;;;;;;;;;4999129;28;20050;-78
2023/07/26 02:45:22;;;;;;;2.70;2.00;;;;;;;;;;4993249;28;20181;-76
2023/07/26 02:47:49;;;;;;;2.05;1.83;;;;;;;;;;4998184;28;20045;-78
2023/07/26 02:50:17;;;;;;;1.98;1.80;;;;;;;;;;5002626;28;20049;-76
2023/07/26 02:52:44;;;;;;;2.35;2.00;;;;;;;;;;4997328;28;20484;-74
2023/07/26 02:55:12;;;;;;;1.95;1.85;;;;;;;;;;4992148;28;20047;-74
2023/07/26 02:57:39;;;;;;;1.77;1.67;;;;;;;;;;4996879;28;20076;-77
2023/07/26 03:00:07;;;;;;;1.70;1.70;;;;;;;;;;4994427;28;20060;-75
2023/07/26 03:02:34;;;;;;;1.83;1.73;;;;;;;;;;4999109;28;20319;-74
2023/07/26 03:05:02;;;;;;;1.90;1.80;;;;;;;;;;5004822;28;20076;-74
2023/07/26 03:07:29;;;;;;;2.35;1.92;;;;;;;;;;4980478;28;20516;-75
2023/07/26 03:09:56;;;;;;;1.67;1.58;;;;;;;;;;5003177;28;20049;-74
2023/07/26 03:12:24;;;;;;;3.97;1.80;;;;;;;;;;5005290;28;20089;-74
2023/07/26 03:14:51;;;;;;;2.28;1.73;;;;;;;;;;4994157;28;20039;-74
2023/07/26 03:17:19;;;;;;;1.85;1.80;;;;;;;;;;5004310;28;20093;-74
2023/07/26 03:19:50;;;;;;;2.23;2.03;;;;;;;;;;4999513;28;20054;-73
2023/07/26 03:22:17;;;;;;;2.38;1.80;;;;;;;;;;5003375;28;20730;-74
2023/07/26 03:24:45;;;;;;;2.22;2.10;;;;;;;;;;4999112;28;20052;-75
2023/07/26 03:27:13;;;;;;;2.22;2.08;;;;;;;;;;5002524;28;20042;-74
2023/07/26 03:29:40;;;;;;;3.03;2.00;;;;;;;;;;4998697;28;20046;-75
2023/07/26 03:32:08;;;;;;;2.05;1.95;;;;;;;;;;4996134;28;20049;-75
2023/07/26 03:34:35;;;;;;;2.08;1.80;;;;;;;;;;4991212;28;20069;-74
2023/07/26 03:37:03;;;;;;;1.80;1.70;;;;;;;;;;4993041;28;20050;-75
2023/07/26 03:39:31;;;;;;;2.05;1.85;;;;;;;;;;4999930;28;20531;-74
2023/07/26 03:41:58;;;;;;;2.25;1.60;;;;;;;;;;5000543;28;20070;-74
2023/07/26 03:44:25;;;;;;;1.77;1.67;;;;;;;;;;4997038;28;20141;-75
2023/07/26 03:46:53;;;;;;;1.83;1.77;;;;;;;;;;4999372;28;20401;-74
2023/07/26 03:49:20;;;;;;;2.30;1.77;;;;;;;;;;5003362;28;20057;-74
2023/07/26 03:51:48;;;;;;;2.60;2.13;;;;;;;;;;5004115;28;20042;-74
2023/07/26 03:54:15;;;;;;;2.30;2.10;;;;;;;;;;5006024;28;20053;-75
2023/07/26 03:56:42;;;;;;;2.10;1.90;;;;;;;;;;4998487;28;20552;-76
2023/07/26 03:59:10;;;;;;;1.98;1.88;;;;;;;;;;4999758;28;20046;-76
2023/07/26 04:01:40;;;;;;;2.13;1.98;;;;;;;;;;5013686;28;20042;-76
2023/07/26 04:04:09;;;;;;;2.22;2.03;;;;;;;;;;5009886;28;20104;-77
2023/07/26 04:06:37;;;;;;;4.57;2.33;;;;;;;;;;5016968;28;20042;-77
2023/07/26 04:09:04;;;;;;;4.15;2.08;;;;;;;;;;5002525;28;20046;-76
2023/07/26 04:11:32;;;;;;;1.80;1.70;;;;;;;;;;5003689;28;20050;-76
2023/07/26 04:13:59;;;;;;;2.10;2.00;;;;;;;;;;5004029;28;20085;-77
2023/07/26 04:16:27;;;;;;;1.67;1.58;;;;;;;;;;5000644;28;20465;-76
2023/07/26 04:18:54;;;;;;;1.92;1.85;;;;;;;;;;4995515;28;20497;-76
2023/07/26 04:21:22;;;;;;;2.00;1.90;;;;;;;;;;4995977;28;20050;-77
2023/07/26 04:23:49;;;;;;;1.80;1.70;;;;;;;;;;5002600;28;20104;-76
2023/07/26 04:26:16;;;;;;;3.78;2.03;;;;;;;;;;5004218;28;20062;-76
2023/07/26 04:28:44;;;;;;;2.75;1.95;;;;;;;;;;5001398;28;20526;-76
2023/07/26 04:31:12;;;;;;;2.67;2.03;;;;;;;;;;4999976;28;20046;-77
2023/07/26 04:33:39;;;;;;;2.13;1.92;;;;;;;;;;4999013;28;20400;-77
2023/07/26 04:36:07;;;;;;;2.65;1.75;;;;;;;;;;4997914;28;20100;-75
2023/07/26 04:38:35;;;;;;;2.00;1.90;;;;;;;;;;4992493;28;20051;-78
2023/07/26 04:41:04;;;;;;;1.88;1.77;;;;;;;;;;4999650;28;20058;-76
2023/07/26 04:43:31;;;;;;;4.25;1.80;;;;;;;;;;4997599;28;20058;-78
2023/07/26 04:45:59;;;;;;;2.58;2.38;;;;;;;;;;4996298;28;20054;-78
2023/07/26 04:48:26;;;;;;;2.50;2.30;;;;;;;;;;4999673;28;20057;-76
2023/07/26 04:50:54;;;;;;;2.30;2.13;;;;;;;;;;4997471;28;20456;-76
2023/07/26 04:53:21;;;;;;;2.30;2.00;;;;;;;;;;4999242;28;20058;-76
2023/07/26 04:55:52;;;;;;;2.97;2.00;;;;;;;;;;5000859;28;20481;-76
2023/07/26 04:58:19;;;;;;;2.00;1.90;;;;;;;;;;4990298;28;20104;-76
2023/07/26 05:00:47;;;;;;;2.25;2.10;;;;;;;;;;4995295;28;20060;-76
2023/07/26 05:03:14;;;;;;;2.65;2.00;;;;;;;;;;4995875;28;20139;-77
2023/07/26 05:05:42;;;;;;;1.65;1.55;;;;;;;;;;5003483;28;20141;-77
2023/07/26 05:08:10;;;;;;;1.98;1.83;;;;;;;;;;4999069;28;20041;-76
2023/07/26 05:10:37;;;;;;;3.72;2.17;;;;;;;;;;5000879;28;20045;-76
2023/07/26 05:13:04;;;;;;;2.40;1.80;;;;;;;;;;5004578;28;20050;-76
2023/07/26 05:15:32;;;;;;;2.08;1.90;;;;;;;;;;4997131;28;20077;-76
2023/07/26 05:17:59;;;;;;;2.28;2.08;;;;;;;;;;5001299;28;20057;-76
2023/07/26 05:20:27;;;;;;;3.20;2.25;;;;;;;;;;5000108;28;20416;-76
2023/07/26 05:22:54;;;;;;;2.03;1.83;;;;;;;;;;4989537;28;20070;-76
2023/07/26 05:25:22;;;;;;;2.38;2.00;;;;;;;;;;4997586;28;20137;-78
2023/07/26 05:27:49;;;;;;;2.70;2.00;;;;;;;;;;5002011;28;20050;-78
2023/07/26 05:30:20;;;;;;;2.60;2.00;;;;;;;;;;4998366;28;20054;-76
2023/07/26 05:32:47;;;;;;;2.70;2.50;;;;;;;;;;5000397;28;20062;-76
2023/07/26 05:35:15;;;;;;;3.50;2.10;;;;;;;;;;4990102;28;20046;-77
2023/07/26 05:37:42;;;;;;;4.22;1.92;;;;;;;;;;4995388;28;20512;-78
2023/07/26 05:40:10;;;;;;;2.20;2.00;;;;;;;;;;5002703;28;20359;-75
2023/07/26 05:42:38;;;;;;;4.22;1.70;;;;;;;;;;4998870;28;20053;-75
2023/07/26 05:45:05;;;;;;;2.28;1.63;;;;;;;;;;5000092;28;20409;-76
2023/07/26 05:47:37;;;;;;;3.47;2.28;;;;;;;;;;4997969;28;20095;-77
2023/07/26 05:50:05;;;;;;;;;;;;;;;;;;5004443;28;20156;-75
2023/07/26 05:52:32;;;;;;;2.10;2.00;;;;;;;;;;4994570;28;20000;-75
2023/07/26 05:55:00;;;;;;;2.25;2.05;;;;;;;;;;4995320;28;20148;-76
2023/07/26 05:57:28;;;;;;;2.55;2.20;;;;;;;;;;4997566;28;20060;-75
2023/07/26 05:59:55;;;;;;;2.83;2.28;;;;;;;;;;5002394;28;20093;-75
2023/07/26 06:02:22;;;;;;;1.83;1.73;;;;;;;;;;5002331;28;20054;-77
2023/07/26 06:04:50;;;;;;;1.88;1.75;;;;;;;;;;5000528;28;20050;-76
2023/07/26 06:07:18;;;;;;;2.53;2.33;;;;;;;;;;4994648;28;20574;-75
2023/07/26 06:09:45;;;;;;;2.53;2.33;;;;;;;;;;4999729;28;20045;-77
2023/07/26 06:12:12;;;;;;;5.00;2.03;;;;;;;;;;4992062;28;20408;-75
2023/07/26 06:14:40;;;;;;;2.30;2.10;;;;;;;;;;4994711;28;20049;-75
2023/07/26 06:17:08;;;;;;;2.55;1.95;;;;;;;;;;4996067;28;20144;-75
2023/07/26 06:19:35;;;;;;;2.28;2.10;;;;;;;;;;4998974;28;20575;-75
2023/07/26 06:22:03;;;;;;;2.05;1.73;;;;;;;;;;4991718;28;20046;-75
2023/07/26 06:24:31;;;;;;;2.53;2.30;;;;;;;;;;4999229;28;20129;-75
2023/07/26 06:26:59;;;;;;;2.75;2.13;;;;;;;;;;5000369;28;20512;-77
2023/07/26 06:29:27;;;;;;;2.30;2.10;;;;;;;;;;4993258;28;20042;-76
2023/07/26 06:31:54;;;;;;;2.53;2.08;;;;;;;;;;4998118;28;20104;-76
2023/07/26 06:34:22;;;;;;;4.38;1.85;;;;;;;;;;5002334;28;20042;-75
2023/07/26 06:36:49;;;;;;;2.42;2.22;;;;;;;;;;4995025;28;20041;-77
2023/07/26 06:39:17;;;;;;;3.00;2.20;;;;;;;;;;4994283;28;20045;-75
2023/07/26 06:41:44;;;;;;;1.92;1.83;;;;;;;;;;5002634;28;20317;-77
2023/07/26 06:44:11;;;;;;;2.17;2.08;;;;;;;;;;4993390;28;20070;-75
2023/07/26 06:46:39;;;;;;;2.42;2.25;;;;;;;;;;5002010;28;20100;-76
2023/07/26 06:49:06;;;;;;;2.53;2.17;;;;;;;;;;5001256;28;20252;-75
2023/07/26 06:51:34;;;;;;;2.53;2.25;;;;;;;;;;5002747;28;20035;-75
2023/07/26 06:54:03;;;;;;;2.30;2.10;;;;;;;;;;4998388;28;20050;-75
2023/07/26 06:56:31;;;;;;;2.15;1.98;;;;;;;;;;4998608;28;20065;-78
2023/07/26 06:58:58;;;;;;;4.30;2.30;;;;;;;;;;4992171;28;20054;-76
2023/07/26 07:01:26;;;;;;;2.53;2.38;;;;;;;;;;5003755;28;20046;-76
2023/07/26 07:03:53;;;;;;;1.80;1.70;;;;;;;;;;4998495;28;20108;-77
2023/07/26 07:06:38;;;;;;;2.38;2.17;;;;;;;;;;4996325;28;20088;-75
2023/07/26 07:09:05;;;;;;;2.53;2.33;;;;;;;;;;4999054;28;20153;-75
2023/07/26 07:11:33;;;;;;;2.55;2.35;;;;;;;;;;5002424;28;20408;-75
2023/07/26 07:14:00;;;;;;;2.58;2.08;;;;;;;;;;5001084;28;20049;-75
2023/07/26 07:16:29;;;;;;;3.20;2.45;;;;;;;;;;4998164;28;20049;-78
2023/07/26 07:18:57;;;;;;;2.35;2.25;;;;;;;;;;4996625;28;20064;-76
2023/07/26 07:21:24;;;;;;;2.75;2.55;;;;;;;;;;5000769;28;20127;-76
2023/07/26 07:23:53;;;;;;;2.10;1.98;;;;;;;;;;4992554;28;20516;-75
2023/07/26 07:26:20;;;;;;;2.70;2.40;;;;;;;;;;4998909;28;21117;-77
2023/07/26 07:28:48;;;;;;;2.17;2.08;;;;;;;;;;4995715;28;20057;-77
2023/07/26 07:31:17;;;;;;;2.00;1.90;;;;;;;;;;5001988;28;20038;-76
2023/07/26 07:33:44;;;;;;;2.47;2.28;;;;;;;;;;4987967;28;20235;-76
2023/07/26 07:36:15;;;;;;;2.17;2.08;;;;;;;;;;5001965;28;20042;-78
2023/07/26 07:38:42;;;;;;;1.65;1.65;;;;;;;;;;4996731;28;20141;-76
2023/07/26 07:41:10;;;;;;;2.30;2.10;;;;;;;;;;4994669;28;20515;-76
2023/07/26 07:43:39;;;;;;;2.65;2.00;;;;;;;;;;5002885;28;20053;-76
2023/07/26 07:46:07;;;;;;;2.28;2.08;;;;;;;;;;4997288;28;20513;-76
2023/07/26 07:48:35;;;;;;;2.88;1.90;;;;;;;;;;4997457;28;20034;-76
2023/07/26 07:51:02;;;;;;;2.20;2.00;;;;;;;;;;4998498;28;20107;-77
2023/07/26 07:53:30;;;;;;;4.22;2.25;;;;;;;;;;4993321;28;20085;-76
2023/07/26 07:55:57;;;;;;;2.33;1.98;;;;;;;;;;5002369;28;20052;-76
2023/07/26 07:58:26;;;;;;;1.77;1.67;;;;;;;;;;4996219;28;20431;-76
2023/07/26 08:00:58;;;;;;;2.38;1.80;;;;;;;;;;5001592;28;20479;-76
2023/07/26 08:03:26;;;;;;;1.60;1.50;;;;;;;;;;5003150;28;20042;-76
2023/07/26 08:05:54;;;;;;;1.63;1.52;;;;;;;;;;4996207;28;20056;-78
2023/07/26 08:08:22;;;;;;;2.05;1.85;;;;;;;;;;5005036;28;20038;-77
2023/07/26 08:10:50;;;;;;;2.05;1.92;;;;;;;;;;5000409;28;20131;-78
2023/07/26 08:13:17;;;;;;;3.35;2.13;;;;;;;;;;4996385;28;20056;-75
2023/07/26 08:15:45;;;;;;;1.95;1.85;;;;;;;;;;4996839;28;20045;-77
2023/07/26 08:18:13;;;;;;;2.00;1.90;;;;;;;;;;5000305;28;20069;-78
2023/07/26 08:20:40;;;;;;;2.53;1.60;;;;;;;;;;4997629;28;20054;-76
2023/07/26 08:23:08;;;;;;;3.58;2.03;;;;;;;;;;4998115;28;20439;-76
2023/07/26 08:25:36;;;;;;;2.97;1.90;;;;;;;;;;5001610;28;20047;-74
2023/07/26 08:28:03;;;;;;;1.52;1.42;;;;;;;;;;5003895;28;20038;-76
2023/07/26 08:30:31;;;;;;;1.80;1.70;;;;;;;;;;4999050;28;20443;-76
2023/07/26 08:32:59;;;;;;;1.80;1.70;;;;;;;;;;4992460;28;20122;-77
2023/07/26 08:35:26;;;;;;;2.20;2.00;;;;;;;;;;4999912;28;20050;-76
2023/07/26 08:37:54;;;;;;;2.58;1.83;;;;;;;;;;5004514;28;20121;-77
2023/07/26 08:40:21;;;;;;;2.47;1.60;;;;;;;;;;5002374;28;20469;-77
2023/07/26 08:42:49;;;;;;;1.92;1.48;;;;;;;;;;5000774;28;20500;-77
2023/07/26 08:45:17;;;;;;;1.73;1.63;;;;;;;;;;5001725;28;20050;-76
2023/07/26 08:47:44;;;;;;;2.15;1.60;;;;;;;;;;5000803;28;20052;-76
2023/07/26 08:50:12;;;;;;;3.08;1.50;;;;;;;;;;5006542;28;20094;-78
2023/07/26 08:52:40;;;;;;;1.92;1.60;;;;;;;;;;4995291;28;20753;-76
2023/07/26 08:55:08;;;;;;;1.40;1.30;;;;;;;;;;4995337;28;20506;-77
2023/07/26 08:57:35;;;;;;;2.53;1.70;;;;;;;;;;4999134;28;20522;-77
2023/07/26 09:00:05;;;;;;;2.30;1.65;;;;;;;;;;4999535;28;20060;-77
2023/07/26 09:02:33;;;;;;;1.60;1.50;;;;;;;;;;4997386;28;20140;-77
2023/07/26 09:05:01;;;;;;;7.15;1.90;;;;;;;;;;4997977;28;20074;-77
2023/07/26 09:07:28;;;;;;;3.70;1.60;;;;;;;;;;4995744;28;20555;-77
2023/07/26 09:09:56;;;;;;;3.50;1.48;;;;;;;;;;5008260;28;20136;-77
2023/07/26 09:12:25;;;;;;;2.38;1.48;;;;;;;;;;4993445;28;20061;-77
2023/07/26 09:14:54;;;;;;;1.55;1.35;;;;;;;;;;5001813;28;20191;-77
2023/07/26 09:17:21;;;;;;;3.13;1.90;;;;;;;;;;5000013;28;20123;-77
2023/07/26 09:19:50;;;;;;;2.63;1.77;;;;;;;;;;5004357;28;20065;-77
2023/07/26 09:22:22;;;;;;;1.70;1.60;;;;;;;;;;4999301;28;20047;-77
2023/07/26 09:24:50;;;;;;;2.42;1.80;;;;;;;;;;5000897;28;20165;-77
2023/07/26 09:27:19;;;;;;;1.35;1.30;;;;;;;;;;5047071;22;20409;-77
2023/07/26 09:29:54;;;;;;;2.65;2.42;;;;;;;;;;5029595;28;20087;-77
2023/07/26 09:32:31;;;;;;;1.40;1.30;;;;;;;;;;5043096;28;20049;-77
2023/07/26 09:34:59;;;;;;;2.63;1.70;;;;;;;;;;5048980;28;20152;-78
2023/07/26 09:37:27;;;;;;;2.25;1.60;;;;;;;;;;5042305;28;20044;-77
2023/07/26 09:39:55;;;;;;;1.85;1.33;;;;;;;;;;5043657;28;20053;-78
2023/07/26 09:42:22;;;;;;;2.08;1.40;;;;;;;;;;5037624;28;20092;-77
2023/07/26 09:44:59;;;;;;;1.70;1.27;;;;;;;;;;5037514;28;20068;-77
2023/07/26 09:47:35;;;;;;;2.55;1.65;;;;;;;;;;5038271;28;20537;-77
2023/07/26 09:50:11;;;;;;;2.75;1.30;;;;;;;;;;5025744;28;20102;-77
2023/07/26 09:52:58;;;;;;;1.80;1.33;;;;;;;;;;5030295;28;20037;-77
2023/07/26 09:55:27;;;;;;;4.50;2.40;;;;;;;;;;5048721;28;20045;-77
2023/07/26 09:58:00;;;;;;;1.52;1.17;;;;;;;;;;5036315;28;20045;-76
2023/07/26 10:00:29;;;;;;;4.47;1.40;;;;;;;;;;5043436;28;20129;-77
2023/07/26 10:03:03;;;;;;;3.28;1.40;;;;;;;;;;5042907;28;20495;-77
2023/07/26 10:05:35;;;;;;;1.05;1.02;;;;;;;;;;5028193;28;20049;-77
2023/07/26 10:08:02;;;;;;;5.53;1.20;;;;;;;;;;5036363;28;20052;-77
2023/07/26 10:10:30;;;;;;;3.70;1.10;;;;;;;;;;5036588;28;20871;-77
2023/07/26 10:12:59;;;;;;;1.48;0.95;;;;;;;;;;5031410;28;20644;-76
2023/07/26 10:15:30;;;;;;;1.15;1.00;;;;;;;;;;5039376;28;20099;-77
2023/07/26 10:17:57;;;;;;;3.38;1.50;;;;;;;;;;5038266;28;20052;-78
2023/07/26 10:20:25;;;;;;;1.75;1.15;;;;;;;;;;5039510;28;20045;-78
2023/07/26 10:22:54;;;;;;;1.40;1.40;;;;;;;;;;5044220;28;20136;-77
2023/07/26 10:25:22;;;;;;;1.45;1.35;;;;;;;;;;5037478;28;20037;-78
2023/07/26 10:27:50;;;;;;;1.20;1.20;;;;;;;;;;5037680;28;20049;-77
2023/07/26 10:30:17;;;;;;;3.20;1.20;;;;;;;;;;5031686;28;20045;-77
2023/07/26 10:32:48;;;;;;;2.00;1.60;;;;;;;;;;5033128;28;20053;-77
2023/07/26 10:35:27;;;;;;;1.20;1.10;;;;;;;;;;5029700;28;20080;-77
2023/07/26 10:37:57;;;;;;;2.90;1.52;;;;;;;;;;5044876;28;20060;-77
2023/07/26 10:40:33;;;;;;;2.65;1.45;;;;;;;;;;5029637;28;20059;-77
2023/07/26 10:43:16;;;;;;;1.85;1.50;;;;;;;;;;5033292;28;20419;-77
2023/07/26 10:45:44;;;;;;;1.65;1.40;;;;;;;;;;5037240;28;20118;-78
2023/07/26 10:48:23;;;;;;;2.28;1.45;;;;;;;;;;5041205;28;20048;-77
2023/07/26 10:50:51;;;;;;;2.45;1.30;;;;;;;;;;5030740;28;20064;-78
2023/07/26 10:53:28;;;;;;;2.45;1.42;;;;;;;;;;5037261;28;20045;-77
2023/07/26 10:56:31;;;;;;;1.65;1.27;;;;;;;;;;5037766;28;20098;-77
2023/07/26 10:59:05;;;;;;;1.20;1.20;;;;;;;;;;4993074;28;20062;-78
2023/07/26 11:01:44;;;;;;;1.55;1.20;;;;;;;;;;5028311;28;20132;-77
2023/07/26 11:04:19;;;;;;;2.63;1.42;;;;;;;;;;5037909;28;20060;-78
2023/07/26 11:06:56;;;;;;;1.40;1.30;;;;;;;;;;5030417;28;20050;-77
2023/07/26 11:09:28;;;;;;;1.33;1.23;;;;;;;;;;5028673;28;20241;-78
2023/07/26 11:11:59;;;;;;;1.25;1.10;;;;;;;;;;5030908;28;20227;-78
2023/07/26 11:14:31;;;;;;;3.03;1.10;;;;;;;;;;5030235;28;20064;-77
2023/07/26 11:17:01;;;;;;;2.40;1.50;;;;;;;;;;5035017;28;20046;-77
2023/07/26 11:19:29;;;;;;;1.73;1.40;;;;;;;;;;5044355;28;20045;-78
2023/07/26 11:22:04;;;;;;;2.20;1.30;;;;;;;;;;5036761;28;20053;-78
2023/07/26 11:24:32;;;;;;;3.15;1.48;;;;;;;;;;5041378;28;20069;-78
2023/07/26 11:27:03;;;;;;;2.35;1.10;;;;;;;;;;5037461;28;20049;-78
2023/07/26 11:29:31;;;;;;;1.38;1.10;;;;;;;;;;5040748;28;20096;-79
2023/07/26 11:31:59;;;;;;;1.73;1.10;;;;;;;;;;5041036;28;20098;-78
2023/07/26 11:34:26;;;;;;;1.58;1.00;;;;;;;;;;5042759;28;20040;-78
2023/07/26 11:37:05;;;;;;;1.35;1.10;;;;;;;;;;5040717;28;20525;-78
2023/07/26 11:39:35;;;;;;;5.90;1.40;;;;;;;;;;5035953;28;20053;-78
2023/07/26 11:42:02;;;;;;;3.53;1.60;;;;;;;;;;5047152;28;20065;-79
2023/07/26 11:44:30;;;;;;;3.88;1.75;;;;;;;;;;5032993;28;20049;-78
2023/07/26 11:47:00;;;;;;;3.65;1.17;;;;;;;;;;5038206;28;20057;-78
2023/07/26 11:49:28;;;;;;;3.33;1.27;;;;;;;;;;5036818;28;20045;-78
2023/07/26 11:51:55;;;;;;;1.23;1.13;;;;;;;;;;5029493;28;20073;-78
2023/07/26 11:54:25;;;;;;;1.67;1.30;;;;;;;;;;5039879;28;20041;-77
2023/07/26 11:56:53;;;;;;;3.95;1.40;;;;;;;;;;5030456;28;20100;-77
2023/07/26 11:59:21;;;;;;;1.95;1.42;;;;;;;;;;5036928;28;20445;-78
2023/07/26 12:01:49;;;;;;;1.70;1.60;;;;;;;;;;5030914;28;20106;-77
2023/07/26 12:04:17;;;;;;;2.15;1.98;;;;;;;;;;5041191;28;20128;-77
2023/07/26 12:06:48;;;;;;;2.90;1.85;;;;;;;;;;5043537;28;20060;-77
2023/07/26 12:09:15;;;;;;;1.55;1.45;;;;;;;;;;5032017;28;20045;-78
2023/07/26 12:11:50;;;;;;;1.95;1.80;;;;;;;;;;5036932;28;20041;-78
2023/07/26 12:14:21;;;;;;;1.85;1.73;;;;;;;;;;5046558;28;20049;-77
2023/07/26 12:16:52;;;;;;;2.20;1.90;;;;;;;;;;5035638;28;20483;-77
2023/07/26 12:19:24;;;;;;;2.25;2.15;;;;;;;;;;5032765;28;20048;-77
2023/07/26 12:21:52;;;;;;;2.55;1.90;;;;;;;;;;5037374;28;20045;-77
2023/07/26 12:24:20;;;;;;;1.83;1.73;;;;;;;;;;5036436;28;20079;-78
2023/07/26 12:26:48;;;;;;;1.80;1.60;;;;;;;;;;5040455;28;20132;-77
2023/07/26 12:29:16;;;;;;;1.65;1.55;;;;;;;;;;5033735;28;20136;-77
2023/07/26 12:31:44;;;;;;;1.67;1.58;;;;;;;;;;5033921;28;20045;-77
2023/07/26 12:34:13;;;;;;;1.70;1.60;;;;;;;;;;5037783;28;20034;-77
2023/07/26 12:36:46;;;;;;;2.20;2.00;;;;;;;;;;5043604;28;20052;-77
2023/07/26 12:39:16;;;;;;;3.42;2.00;;;;;;;;;;5034411;28;20044;-77
2023/07/26 12:41:43;;;;;;;2.10;2.00;;;;;;;;;;5028884;28;20115;-78
2023/07/26 12:44:13;;;;;;;2.05;1.88;;;;;;;;;;5030214;28;20053;-77
2023/07/26 12:46:42;;;;;;;2.25;2.15;;;;;;;;;;5030553;28;20079;-77
2023/07/26 12:49:12;;;;;;;;;;;;;;;;;;5033237;28;20033;-76
2023/07/26 12:51:39;;;;;;;3.67;2.13;;;;;;;;;;5033943;28;20024;-76
2023/07/26 12:54:17;;;;;;;2.50;2.30;;;;;;;;;;5038601;28;20460;-76
2023/07/26 12:56:44;;;;;;;2.40;2.20;;;;;;;;;;5034044;28;20045;-77
2023/07/26 12:59:12;;;;;;;2.53;2.20;;;;;;;;;;5031446;28;20064;-77
2023/07/26 13:01:40;;;;;;;2.38;2.05;;;;;;;;;;5036364;28;20049;-77
2023/07/26 13:04:09;;;;;;;2.38;2.15;;;;;;;;;;5040597;28;20048;-76
2023/07/26 13:06:37;;;;;;;2.35;2.15;;;;;;;;;;5032242;28;20132;-76
2023/07/26 13:09:06;;;;;;;1.98;1.88;;;;;;;;;;5028980;28;20046;-76
2023/07/26 13:11:33;;;;;;;2.17;2.00;;;;;;;;;;5031556;28;20433;-76
2023/07/26 13:14:01;;;;;;;2.28;2.08;;;;;;;;;;5039852;28;20041;-76
2023/07/26 13:16:31;;;;;;;2.17;1.98;;;;;;;;;;5033311;28;20375;-76
2023/07/26 13:19:04;;;;;;;1.83;1.73;;;;;;;;;;5042796;28;20123;-76
2023/07/26 13:21:32;;;;;;;2.33;2.13;;;;;;;;;;5037700;28;20045;-76
2023/07/26 13:23:59;;;;;;;1.92;1.83;;;;;;;;;;5037676;28;20053;-76
2023/07/26 13:26:30;;;;;;;2.00;1.80;;;;;;;;;;5028891;28;20049;-76
2023/07/26 13:28:57;;;;;;;1.98;1.80;;;;;;;;;;5035414;28;20103;-77
2023/07/26 13:31:25;;;;;;;3.85;2.10;;;;;;;;;;5041058;28;20060;-77
2023/07/26 13:33:52;;;;;;;2.08;1.80;;;;;;;;;;5043928;28;20072;-77
2023/07/26 13:36:23;;;;;;;2.15;1.80;;;;;;;;;;5030733;28;20793;-77
2023/07/26 13:38:51;;;;;;;2.38;1.95;;;;;;;;;;5028107;28;20045;-77
2023/07/26 13:41:19;;;;;;;1.80;1.70;;;;;;;;;;5033036;28;20053;-76
2023/07/26 13:43:47;;;;;;;2.65;2.08;;;;;;;;;;5034275;28;20048;-76
2023/07/26 13:46:15;;;;;;;1.85;1.75;;;;;;;;;;5040921;28;20041;-77
2023/07/26 13:48:46;;;;;;;2.10;1.90;;;;;;;;;;5038120;28;20052;-76
2023/07/26 13:51:13;;;;;;;2.00;1.70;;;;;;;;;;5031878;28;20116;-78
2023/07/26 13:53:41;;;;;;;2.65;1.70;;;;;;;;;;5033105;28;20307;-76
2023/07/26 13:56:09;;;;;;;1.60;1.50;;;;;;;;;;5035009;28;20545;-76
2023/07/26 13:58:37;;;;;;;1.73;1.50;;;;;;;;;;5035616;28;20083;-76
2023/07/26 14:01:04;;;;;;;1.83;1.70;;;;;;;;;;5034218;28;20080;-76
2023/07/26 14:03:31;;;;;;;1.90;1.80;;;;;;;;;;5033556;28;20072;-76
2023/07/26 14:05:59;;;;;;;1.63;1.58;;;;;;;;;;5025854;28;20045;-76
2023/07/26 14:08:26;;;;;;;10.65;2.45;;;;;;;;;;5028283;28;20095;-78
2023/07/26 14:10:54;;;;;;;7.22;1.33;;;;;;;;;;5032289;28;20112;-76
2023/07/26 14:13:21;;;;;;;3.47;1.20;;;;;;;;;;5033939;28;20071;-79
2023/07/26 14:15:49;;;;;;;1.30;1.20;;;;;;;;;;5039818;28;20090;-77
2023/07/26 14:18:16;;;;;;;5.22;1.27;;;;;;;;;;5034904;28;20045;-78
2023/07/26 14:20:44;;;;;;;1.35;1.17;;;;;;;;;;5029736;28;20045;-78
2023/07/26 14:23:12;;;;;;;1.92;1.00;;;;;;;;;;5031538;28;20066;-78
2023/07/26 14:25:39;;;;;;;0.80;0.80;;;;;;;;;;5027364;28;20056;-77
2023/07/26 14:28:07;;;;;;;1.42;0.98;;;;;;;;;;5028016;28;20045;-78
2023/07/26 14:30:34;;;;;;;1.00;0.73;;;;;;;;;;5031450;28;20776;-78
2023/07/26 14:33:01;;;;;;;1.20;1.13;;;;;;;;;;5027376;28;20400;-78
2023/07/26 14:35:29;;;;;;;2.10;1.23;;;;;;;;;;5038246;28;20576;-78
2023/07/26 14:37:56;;;;;;;0.90;0.90;;;;;;;;;;5032403;28;20048;-77
2023/07/26 14:40:24;;;;;;;1.65;1.10;;;;;;;;;;5031036;28;20475;-79
2023/07/26 14:42:52;;;;;;;2.03;0.93;;;;;;;;;;5030037;28;20057;-77
2023/07/26 14:45:19;;;;;;;3.40;0.95;;;;;;;;;;5031215;28;20068;-78
2023/07/26 14:47:46;;;;;;;1.25;1.05;;;;;;;;;;5036067;28;20050;-77
2023/07/26 14:50:14;;;;;;;1.92;0.90;;;;;;;;;;5034065;28;20053;-78
2023/07/26 14:52:42;;;;;;;1.00;0.90;;;;;;;;;;5031399;28;20549;-78